METAR stanice u blizini

 

LYBE - Beograd / Surčin, Srbija
Ažurirano: 05/06/2020 02:00
Vedro
Vedro
 Pravac vetra JJI
Vetar: JJI 17 km/h
Temperatura: 20°C
Tačka rose: 9°C
Vlažnost: 49%
Pritisak: 1004 hPa
Pregled: Vedro
Vidljivost: greater than 10 km
2020/06/05 00:00 LYBE 050000Z 16009KT CAVOK 20/09 Q1004 NOSIG
LYBT - Beograd / Batajnica, Srbija
Ažurirano: 05/06/2020 02:00
Vedro
Vedro
 Pravac vetra JI
Vetar: JI 13 km/h
Temperatura: 18°C
Tačka rose: 9°C
Vlažnost: 56%
Pritisak: 1003 hPa
Pregled: Vedro
Vidljivost: greater than 10 km
2020/06/05 00:00 LYBT 050000Z 13007KT CAVOK 18/09 Q1003 NOSIG
LYVR - Vršac, Srbija
Ažurirano: 05/06/2020 02:00
Vedro
Vedro
 Pravac vetra JJI
Vetar: JJI 30 km/h
Temperatura: 20°C
Tačka rose: 9°C
Vlažnost: 49%
Pritisak: 1004 hPa
Pregled: Vedro
Vidljivost: greater than 10 km
2020/06/05 00:00 LYVR 050000Z AUTO 16016KT CAVOK 20/09 Q1004
 
LYKV - Lađevci, Srbija
Ažurirano: 05/06/2020 02:00
Vedro
Vedro
 Pravac vetra varies
Vetar: varies 2 km/h
Temperatura: 16°C
Tačka rose: 13°C
Vlažnost: 83%
Pritisak: 1006 hPa
Pregled: Vedro
Vidljivost: greater than 10 km
2020/06/05 00:00 LYKV 050000Z VRB01KT CAVOK 16/13 Q1006 NOSIG
LYNI - Niš, Srbija
Ažurirano: 05/06/2020 02:00
Vedro
Vedro
 Pravac vetra varies
Vetar: varies 2 km/h
Temperatura: 17°C
Tačka rose: 9°C
Vlažnost: 59%
Pritisak: 1009 hPa
Pregled: Vedro
Vidljivost: greater than 10 km
2020/06/05 00:00 LYNI 050000Z VRB01KT CAVOK 17/09 Q1009 NOSIG
BKPR - Priština, Srbija
Ažurirano: 05/06/2020 02:00
Vedro
Vedro
 Pravac vetra ZJZ
Vetar: ZJZ 11 km/h
Temperatura: 15°C
Tačka rose: 6°C
Vlažnost: 55%
Pritisak: 1011 hPa
Pregled: Vedro
Vidljivost: greater than 10 km
2020/06/05 00:00 BKPR 050000Z 24006KT CAVOK 15/06 Q1011 NOSIG
 
LHPP - Pecs / Pogany, Hungary
Ažurirano: 04/06/2020 19:45
NOT Current
Oblačno
Oblačno
 Pravac vetra ZJZ
Vetar: ZJZ 7 km/h
Temperatura: 19°C
Tačka rose: 14°C
Vlažnost: 73%
Pritisak: 1001 hPa
Oblaci: Oblačno
Vidljivost: 10 km
Cloud details: Few Clouds 1402 m
Oblačno 2530 m
2020/06/04 17:45 LHPP 041745Z 25004KT 9999 FEW046 OVC083 19/14 Q1001
LHUD - Szeged, Hungary
Ažurirano: 04/07/2019 01:45
NOT Current
Vedro
Vedro
 Pravac vetra S
Vetar: S 7 km/h
Temperatura: 18°C
Tačka rose: 13°C
Vlažnost: 73%
Pritisak: 1019 hPa
Pregled: Vedro
Vidljivost: greater than 10 km
2019/07/03 23:45 LHUD 032345Z 35004KT CAVOK 18/13 Q1019
LRTR - Timisoara, Romania
Ažurirano: 05/06/2020 02:00
Slaba kiša, Delimično oblačno
Slaba kiša, Delimično oblačno
 Pravac vetra JJI
Vetar: JJI 9 km/h
Temperatura: 18°C
Tačka rose: 11°C
Vlažnost: 64%
Pritisak: 1004 hPa
Pregled: Light Rain
Oblaci: Partly Cloudy
Vidljivost: 10 km
2020/06/05 00:00 LRTR 050000Z 16005KT 9999 -RA NSC 18/11 Q1004 NOSIG
 
LRCV - Craiova, Romania
Ažurirano: 05/06/2020 02:00
Vedro
Vedro
 Pravac vetra JI
Vetar: JI 6 km/h
Temperatura: 15°C
Tačka rose: 11°C
Vlažnost: 77%
Pritisak: 1007 hPa
Pregled: Vedro
Vidljivost: greater than 10 km
2020/06/05 00:00 LRCV 050000Z 14003KT CAVOK 15/11 Q1007
LBSF - Sofia, Bulgaria
Ažurirano: 05/06/2020 02:00
Few Clouds
Few Clouds
 Pravac vetra ISI
Vetar: ISI 19 km/h
Temperatura: 16°C
Tačka rose: 8°C
Vlažnost: 59%
Pritisak: 1010 hPa
Oblaci: Few Clouds
Vidljivost: 10 km
Cloud details: Few Clouds 2591 m
2020/06/05 00:00 LBSF 050000Z 07010KT 9999 FEW085 16/08 Q1010 NOSIG
LWSK - Skoplje, Makedonija
Ažurirano: 05/06/2020 02:00
Few Clouds
Few Clouds
 Pravac vetra calm
Vetar: Tišina
Temperatura: 12°C
Tačka rose: 9°C
Vlažnost: 82%
Pritisak: 1011 hPa
Oblaci: Few Clouds
Vidljivost: 10 km
Cloud details: Few Clouds 3048 m
2020/06/05 00:00 LWSK 050000Z 00000KT 9999 FEW100 12/09 Q1011 NOSIG
 
LYPG - Podgorica, Crna Gora
Ažurirano: 05/06/2020 02:00
Mostly Cloudy
Mostly Cloudy
 Pravac vetra calm
Vetar: Tišina
Temperatura: 17°C
Tačka rose: 13°C
Vlažnost: 77%
Pritisak: 1011 hPa
Oblaci: Mostly Cloudy
Vidljivost: 10 km
Cloud details: Few Clouds 914 m
Partly Cloudy 1219 m
Mostly Cloudy 2438 m
2020/06/05 00:00 LYPG 050000Z 00000KT 9999 FEW030 SCT040 BKN080 17/13 Q1011 NOSIG
LQSA - Sarajevo, Bosna i Hercegovina
Ažurirano: 04/06/2020 18:30
NOT Current
Partly Cloudy
Partly Cloudy
 Pravac vetra J
Vetar: J 20 km/h
Temperatura: 20°C
Tačka rose: 6°C
Vlažnost: 40%
Pritisak: 1007 hPa
Oblaci: Partly Cloudy
Vidljivost: 10 km
Cloud details: Partly Cloudy 1372 m
Partly Cloudy 2134 m
2020/06/04 16:30 LQSA 041630Z 17011KT 130V190 9999 SCT045 SCT070 20/06 Q1007 NOSIG
LDOS - Osijek, Hrvatksa
Ažurirano: 05/06/2020 02:00
Vedro
Vedro
 Pravac vetra JJI
Vetar: JJI 17 km/h
Temperatura: 17°C
Tačka rose: 11°C
Vlažnost: 68%
Pritisak: 1001 hPa
Pregled: Vedro
Vidljivost: greater than 10 km
2020/06/05 00:00 LDOS 050000Z 15009KT CAVOK 17/11 Q1001